Erie, PA

5:11 AM EDT on August 30, 2015 (GMT -0400)
South Erie | | Change Station
CLOSE
Current Station
Personal Weather Station
Location: Erie, PA
Elevation: 833 ft
Nearby Weather Stations

Elev 833 ft 42.09 °N, 80.08 °W | Updated 5 seconds ago

Overcast
Overcast
67.1 °F
Feels Like 67.1 °F
N
0.0
Wind Variable Wind from South
Gusts 0.0 mph

Today
High -- | Low -- °F
--% Chance of Precip.
Yesterday
High -- | Low -- °F
Precip. -- in
6:43 AM 7:57 PM
Waxing Gibbous, 99% visible
Pressure 30.05 in
Visibility 9.0 miles
Clouds Few 8500 ft
Overcast 11000 ft
Dew Point 61 °F
Humidity 82%
Rainfall 0.00 in
Snow Depth Not available.
UV 0 out of 12
Pollen 9.60 out of 12
Air Quality Not available.
Flu Activity Not available.
METAR KERI 300851Z 17006KT 9SM FEW085 OVC110 20/18 A3006 RMK AO2 SLP174 60004 T02000178 55005
Pressure 30.05 in
Visibility 9.0 miles
Clouds Few 8500 ft
Overcast 11000 ft
Dew Point 61 °F
Humidity 82%
Rainfall 0.00 in
Snow Depth Not available.
UV 0 out of 12
Pollen 9.60 out of 12
Air Quality Not available.
Flu Activity Not available.
METAR KERI 300851Z 17006KT 9SM FEW085 OVC110 20/18 A3006 RMK AO2 SLP174 60004 T02000178 55005

10-Day Weather Forecast

×

Almanac

Astronomy

Aug. 30, 2015 Rise Set
Actual Time
Civil Twilight
Nautical Twilight
Astronomical Twilight
Moon
Length of Visible Light
Length of Day
Tomorrow will be .
, % of the Moon is Illuminated

Today's Extremes

State Highs State Lows

Community

WunderPhotos

Upload Photos

1,850,909 photos uploaded!

WunderBlogs® & News

Nearby

Air Quality

  Air Quality AQ Index Pollutant
Not available.

Snow Depth

Station Depth Elevation

Earthquake Activity

City Distance Mag. Time & Date
Minimum magnitude displayed is 2.5.

Coastal Water Temperatures

Place Temperature

Stations

Nearby Weather Stations

Station Location Temp. Windchill Dew Point Humidity Wind Precip. Elev Updated Type